sensor_id;sensor_type;location;lat;lon;timestamp;P1;durP1;ratioP1;P2;durP2;ratioP2
42332;SDS011;27984;51.476;5.702;2022-11-20T00:01:15;19.13;;;12.48;;
42332;SDS011;27984;51.476;5.702;2022-11-20T00:03:46;20.20;;;12.32;;
42332;SDS011;27984;51.476;5.702;2022-11-20T00:06:16;22.13;;;12.93;;
42332;SDS011;27984;51.476;5.702;2022-11-20T00:08:43;21.17;;;12.68;;
42332;SDS011;27984;51.476;5.702;2022-11-20T00:13:42;19.33;;;12.40;;
42332;SDS011;27984;51.476;5.702;2022-11-20T00:16:09;21.60;;;12.82;;
42332;SDS011;27984;51.476;5.702;2022-11-20T00:18:36;24.13;;;13.63;;
42332;SDS011;27984;51.476;5.702;2022-11-20T00:21:03;20.48;;;13.65;;
42332;SDS011;27984;51.476;5.702;2022-11-20T00:23:30;22.85;;;13.82;;
42332;SDS011;27984;51.476;5.702;2022-11-20T00:25:56;22.27;;;14.15;;
42332;SDS011;27984;51.476;5.702;2022-11-20T00:28:25;24.40;;;13.27;;
42332;SDS011;27984;51.476;5.702;2022-11-20T00:30:51;22.40;;;14.13;;
42332;SDS011;27984;51.476;5.702;2022-11-20T00:33:16;21.27;;;13.63;;
42332;SDS011;27984;51.476;5.702;2022-11-20T00:35:42;23.95;;;13.40;;
42332;SDS011;27984;51.476;5.702;2022-11-20T00:38:08;23.27;;;13.23;;
42332;SDS011;27984;51.476;5.702;2022-11-20T00:40:33;21.48;;;13.48;;
42332;SDS011;27984;51.476;5.702;2022-11-20T00:42:59;23.75;;;13.35;;
42332;SDS011;27984;51.476;5.702;2022-11-20T00:45:27;22.23;;;14.25;;
42332;SDS011;27984;51.476;5.702;2022-11-20T00:47:53;22.48;;;14.05;;
42332;SDS011;27984;51.476;5.702;2022-11-20T00:50:18;23.73;;;13.93;;
42332;SDS011;27984;51.476;5.702;2022-11-20T00:52:44;23.63;;;14.25;;
42332;SDS011;27984;51.476;5.702;2022-11-20T00:55:09;20.85;;;13.35;;
42332;SDS011;27984;51.476;5.702;2022-11-20T00:57:35;22.02;;;13.90;;
42332;SDS011;27984;51.476;5.702;2022-11-20T01:00:06;22.38;;;13.82;;
42332;SDS011;27984;51.476;5.702;2022-11-20T01:02:32;21.65;;;13.75;;
42332;SDS011;27984;51.476;5.702;2022-11-20T01:04:57;27.08;;;15.05;;
42332;SDS011;27984;51.476;5.702;2022-11-20T01:07:25;22.67;;;13.95;;
42332;SDS011;27984;51.476;5.702;2022-11-20T01:09:51;23.98;;;13.90;;
42332;SDS011;27984;51.476;5.702;2022-11-20T01:12:16;23.58;;;14.20;;
42332;SDS011;27984;51.476;5.702;2022-11-20T01:14:44;21.85;;;13.40;;
42332;SDS011;27984;51.476;5.702;2022-11-20T01:17:11;20.90;;;13.43;;
42332;SDS011;27984;51.476;5.702;2022-11-20T01:19:37;23.48;;;14.15;;
42332;SDS011;27984;51.476;5.702;2022-11-20T01:22:03;24.00;;;14.30;;
42332;SDS011;27984;51.476;5.702;2022-11-20T01:24:28;22.77;;;13.80;;
42332;SDS011;27984;51.476;5.702;2022-11-20T01:26:56;23.17;;;14.27;;
42332;SDS011;27984;51.476;5.702;2022-11-20T01:29:23;22.50;;;14.05;;
42332;SDS011;27984;51.476;5.702;2022-11-20T01:31:49;23.83;;;14.32;;
42332;SDS011;27984;51.476;5.702;2022-11-20T01:34:16;22.92;;;14.02;;
42332;SDS011;27984;51.476;5.702;2022-11-20T01:36:43;23.00;;;14.60;;
42332;SDS011;27984;51.476;5.702;2022-11-20T01:39:15;23.83;;;13.90;;
42332;SDS011;27984;51.476;5.702;2022-11-20T01:41:43;22.50;;;14.23;;
42332;SDS011;27984;51.476;5.702;2022-11-20T01:47:36;22.20;;;13.35;;
42332;SDS011;27984;51.476;5.702;2022-11-20T01:52:39;20.45;;;13.10;;
42332;SDS011;27984;51.476;5.702;2022-11-20T01:55:27;21.67;;;13.00;;
42332;SDS011;27984;51.476;5.702;2022-11-20T02:00:25;24.60;;;14.45;;
42332;SDS011;27984;51.476;5.702;2022-11-20T02:02:55;23.67;;;14.13;;
42332;SDS011;27984;51.476;5.702;2022-11-20T02:07:56;23.98;;;14.43;;
42332;SDS011;27984;51.476;5.702;2022-11-20T02:10:22;22.65;;;13.88;;
42332;SDS011;27984;51.476;5.702;2022-11-20T02:12:48;22.13;;;13.55;;
42332;SDS011;27984;51.476;5.702;2022-11-20T02:15:33;21.77;;;14.13;;
42332;SDS011;27984;51.476;5.702;2022-11-20T02:17:59;24.92;;;14.10;;
42332;SDS011;27984;51.476;5.702;2022-11-20T02:20:28;25.13;;;14.80;;
42332;SDS011;27984;51.476;5.702;2022-11-20T02:22:54;21.60;;;14.27;;
42332;SDS011;27984;51.476;5.702;2022-11-20T02:25:37;23.33;;;14.02;;
42332;SDS011;27984;51.476;5.702;2022-11-20T02:28:04;24.38;;;14.45;;
42332;SDS011;27984;51.476;5.702;2022-11-20T02:30:30;23.70;;;14.45;;
42332;SDS011;27984;51.476;5.702;2022-11-20T02:32:57;24.00;;;13.65;;
42332;SDS011;27984;51.476;5.702;2022-11-20T02:37:51;21.88;;;14.57;;
42332;SDS011;27984;51.476;5.702;2022-11-20T02:40:21;24.83;;;13.48;;
42332;SDS011;27984;51.476;5.702;2022-11-20T02:42:51;21.90;;;14.25;;
42332;SDS011;27984;51.476;5.702;2022-11-20T02:45:17;24.27;;;14.63;;
42332;SDS011;27984;51.476;5.702;2022-11-20T02:47:42;22.20;;;14.15;;
42332;SDS011;27984;51.476;5.702;2022-11-20T02:50:08;23.17;;;14.30;;
42332;SDS011;27984;51.476;5.702;2022-11-20T02:52:34;21.50;;;13.95;;
42332;SDS011;27984;51.476;5.702;2022-11-20T02:55:00;23.55;;;15.07;;
42332;SDS011;27984;51.476;5.702;2022-11-20T02:57:28;22.80;;;14.05;;
42332;SDS011;27984;51.476;5.702;2022-11-20T02:59:56;25.10;;;14.35;;
42332;SDS011;27984;51.476;5.702;2022-11-20T03:02:21;23.67;;;14.30;;
42332;SDS011;27984;51.476;5.702;2022-11-20T03:04:49;25.27;;;13.88;;
42332;SDS011;27984;51.476;5.702;2022-11-20T03:07:15;21.60;;;13.88;;
42332;SDS011;27984;51.476;5.702;2022-11-20T03:09:41;22.08;;;14.23;;
42332;SDS011;27984;51.476;5.702;2022-11-20T03:12:09;22.00;;;13.98;;
42332;SDS011;27984;51.476;5.702;2022-11-20T03:14:34;23.98;;;14.63;;
42332;SDS011;27984;51.476;5.702;2022-11-20T03:17:00;22.67;;;14.35;;
42332;SDS011;27984;51.476;5.702;2022-11-20T03:19:25;22.13;;;14.57;;
42332;SDS011;27984;51.476;5.702;2022-11-20T03:21:51;21.85;;;14.45;;
42332;SDS011;27984;51.476;5.702;2022-11-20T03:24:16;24.27;;;15.00;;
42332;SDS011;27984;51.476;5.702;2022-11-20T03:26:42;20.88;;;14.18;;
42332;SDS011;27984;51.476;5.702;2022-11-20T03:29:08;23.50;;;14.98;;
42332;SDS011;27984;51.476;5.702;2022-11-20T03:31:38;22.27;;;13.90;;
42332;SDS011;27984;51.476;5.702;2022-11-20T03:34:08;21.20;;;13.35;;
42332;SDS011;27984;51.476;5.702;2022-11-20T03:36:37;22.63;;;13.75;;
42332;SDS011;27984;51.476;5.702;2022-11-20T03:39:03;23.23;;;14.25;;
42332;SDS011;27984;51.476;5.702;2022-11-20T03:41:30;25.50;;;14.77;;
42332;SDS011;27984;51.476;5.702;2022-11-20T03:43:57;24.50;;;14.52;;
42332;SDS011;27984;51.476;5.702;2022-11-20T03:46:24;22.38;;;14.80;;
42332;SDS011;27984;51.476;5.702;2022-11-20T03:48:51;22.95;;;14.02;;
42332;SDS011;27984;51.476;5.702;2022-11-20T03:51:18;24.50;;;14.75;;
42332;SDS011;27984;51.476;5.702;2022-11-20T03:53:49;23.85;;;14.75;;
42332;SDS011;27984;51.476;5.702;2022-11-20T03:56:16;25.52;;;15.07;;
42332;SDS011;27984;51.476;5.702;2022-11-20T03:58:44;22.00;;;14.80;;
42332;SDS011;27984;51.476;5.702;2022-11-20T04:01:10;24.17;;;14.30;;
42332;SDS011;27984;51.476;5.702;2022-11-20T04:03:41;22.77;;;14.05;;
42332;SDS011;27984;51.476;5.702;2022-11-20T04:06:09;23.63;;;14.10;;
42332;SDS011;27984;51.476;5.702;2022-11-20T04:08:45;24.70;;;14.45;;
42332;SDS011;27984;51.476;5.702;2022-11-20T04:11:15;24.02;;;14.95;;
42332;SDS011;27984;51.476;5.702;2022-11-20T04:13:48;24.27;;;15.02;;
42332;SDS011;27984;51.476;5.702;2022-11-20T04:16:16;23.42;;;14.32;;
42332;SDS011;27984;51.476;5.702;2022-11-20T04:18:42;26.10;;;15.07;;
42332;SDS011;27984;51.476;5.702;2022-11-20T04:21:08;22.88;;;14.23;;
42332;SDS011;27984;51.476;5.702;2022-11-20T04:23:34;26.45;;;14.98;;
42332;SDS011;27984;51.476;5.702;2022-11-20T04:26:01;27.45;;;15.70;;
42332;SDS011;27984;51.476;5.702;2022-11-20T04:28:28;25.10;;;15.05;;
42332;SDS011;27984;51.476;5.702;2022-11-20T04:30:53;25.80;;;14.98;;
42332;SDS011;27984;51.476;5.702;2022-11-20T04:33:19;27.48;;;15.25;;
42332;SDS011;27984;51.476;5.702;2022-11-20T04:35:45;29.67;;;16.45;;
42332;SDS011;27984;51.476;5.702;2022-11-20T04:38:12;25.10;;;14.80;;
42332;SDS011;27984;51.476;5.702;2022-11-20T04:40:39;29.88;;;16.48;;
42332;SDS011;27984;51.476;5.702;2022-11-20T04:43:04;26.10;;;14.77;;
42332;SDS011;27984;51.476;5.702;2022-11-20T04:45:30;24.58;;;15.27;;
42332;SDS011;27984;51.476;5.702;2022-11-20T04:47:55;24.42;;;14.95;;
42332;SDS011;27984;51.476;5.702;2022-11-20T04:50:21;26.88;;;15.43;;
42332;SDS011;27984;51.476;5.702;2022-11-20T04:52:47;24.13;;;14.52;;
42332;SDS011;27984;51.476;5.702;2022-11-20T04:55:12;24.70;;;14.20;;
42332;SDS011;27984;51.476;5.702;2022-11-20T04:57:38;24.95;;;15.00;;
42332;SDS011;27984;51.476;5.702;2022-11-20T05:00:04;25.02;;;15.00;;
42332;SDS011;27984;51.476;5.702;2022-11-20T05:02:30;26.60;;;15.85;;
42332;SDS011;27984;51.476;5.702;2022-11-20T05:04:56;23.60;;;15.57;;
42332;SDS011;27984;51.476;5.702;2022-11-20T05:07:22;26.80;;;15.23;;
42332;SDS011;27984;51.476;5.702;2022-11-20T05:09:47;27.10;;;15.30;;
42332;SDS011;27984;51.476;5.702;2022-11-20T05:12:16;23.70;;;15.35;;
42332;SDS011;27984;51.476;5.702;2022-11-20T05:14:41;25.33;;;15.65;;
42332;SDS011;27984;51.476;5.702;2022-11-20T05:17:09;26.30;;;15.05;;
42332;SDS011;27984;51.476;5.702;2022-11-20T05:19:40;24.88;;;15.43;;
42332;SDS011;27984;51.476;5.702;2022-11-20T05:22:06;24.95;;;15.60;;
42332;SDS011;27984;51.476;5.702;2022-11-20T05:24:31;26.73;;;15.05;;
42332;SDS011;27984;51.476;5.702;2022-11-20T05:26:59;26.25;;;15.10;;
42332;SDS011;27984;51.476;5.702;2022-11-20T05:29:25;26.63;;;14.95;;
42332;SDS011;27984;51.476;5.702;2022-11-20T05:31:50;27.85;;;15.00;;
42332;SDS011;27984;51.476;5.702;2022-11-20T05:34:16;25.73;;;15.70;;
42332;SDS011;27984;51.476;5.702;2022-11-20T05:36:42;27.73;;;15.30;;
42332;SDS011;27984;51.476;5.702;2022-11-20T05:39:07;24.42;;;15.50;;
42332;SDS011;27984;51.476;5.702;2022-11-20T05:41:33;26.25;;;16.17;;
42332;SDS011;27984;51.476;5.702;2022-11-20T05:43:58;26.67;;;15.15;;
42332;SDS011;27984;51.476;5.702;2022-11-20T05:46:24;27.10;;;16.40;;
42332;SDS011;27984;51.476;5.702;2022-11-20T05:48:50;25.70;;;15.70;;
42332;SDS011;27984;51.476;5.702;2022-11-20T05:51:17;27.40;;;15.90;;
42332;SDS011;27984;51.476;5.702;2022-11-20T05:53:44;27.45;;;15.88;;
42332;SDS011;27984;51.476;5.702;2022-11-20T05:56:11;27.67;;;15.38;;
42332;SDS011;27984;51.476;5.702;2022-11-20T05:58:38;26.88;;;15.88;;
42332;SDS011;27984;51.476;5.702;2022-11-20T06:01:11;27.92;;;15.73;;
42332;SDS011;27984;51.476;5.702;2022-11-20T06:03:40;25.40;;;15.93;;
42332;SDS011;27984;51.476;5.702;2022-11-20T06:06:16;26.08;;;16.00;;
42332;SDS011;27984;51.476;5.702;2022-11-20T06:08:43;27.65;;;16.23;;
42332;SDS011;27984;51.476;5.702;2022-11-20T06:11:09;25.52;;;15.63;;
42332;SDS011;27984;51.476;5.702;2022-11-20T06:13:37;23.58;;;15.20;;
42332;SDS011;27984;51.476;5.702;2022-11-20T06:16:03;23.52;;;15.05;;
42332;SDS011;27984;51.476;5.702;2022-11-20T06:18:29;27.92;;;16.05;;
42332;SDS011;27984;51.476;5.702;2022-11-20T06:20:59;27.83;;;16.35;;
42332;SDS011;27984;51.476;5.702;2022-11-20T06:23:30;25.63;;;16.05;;
42332;SDS011;27984;51.476;5.702;2022-11-20T06:25:57;25.88;;;16.85;;
42332;SDS011;27984;51.476;5.702;2022-11-20T06:28:26;24.67;;;16.17;;
42332;SDS011;27984;51.476;5.702;2022-11-20T06:30:52;26.15;;;15.73;;
42332;SDS011;27984;51.476;5.702;2022-11-20T06:33:17;24.80;;;15.77;;
42332;SDS011;27984;51.476;5.702;2022-11-20T06:35:43;26.85;;;16.33;;
42332;SDS011;27984;51.476;5.702;2022-11-20T06:38:08;26.83;;;15.80;;
42332;SDS011;27984;51.476;5.702;2022-11-20T06:40:34;27.58;;;15.95;;
42332;SDS011;27984;51.476;5.702;2022-11-20T06:43:00;23.85;;;14.73;;
42332;SDS011;27984;51.476;5.702;2022-11-20T06:45:25;26.83;;;15.65;;
42332;SDS011;27984;51.476;5.702;2022-11-20T06:47:51;21.95;;;14.45;;
42332;SDS011;27984;51.476;5.702;2022-11-20T06:50:17;26.92;;;15.82;;
42332;SDS011;27984;51.476;5.702;2022-11-20T06:52:42;24.58;;;15.95;;
42332;SDS011;27984;51.476;5.702;2022-11-20T06:55:08;23.85;;;15.30;;
42332;SDS011;27984;51.476;5.702;2022-11-20T06:57:34;23.13;;;14.73;;
42332;SDS011;27984;51.476;5.702;2022-11-20T06:59:59;25.55;;;15.50;;
42332;SDS011;27984;51.476;5.702;2022-11-20T07:02:25;27.92;;;16.02;;
42332;SDS011;27984;51.476;5.702;2022-11-20T07:04:50;25.70;;;15.40;;
42332;SDS011;27984;51.476;5.702;2022-11-20T07:07:16;23.83;;;15.50;;
42332;SDS011;27984;51.476;5.702;2022-11-20T07:09:41;23.92;;;15.70;;
42332;SDS011;27984;51.476;5.702;2022-11-20T07:12:07;25.25;;;15.52;;
42332;SDS011;27984;51.476;5.702;2022-11-20T07:14:33;28.63;;;16.35;;
42332;SDS011;27984;51.476;5.702;2022-11-20T07:16:59;25.00;;;15.63;;
42332;SDS011;27984;51.476;5.702;2022-11-20T07:19:24;26.20;;;15.50;;
42332;SDS011;27984;51.476;5.702;2022-11-20T07:21:50;26.48;;;15.70;;
42332;SDS011;27984;51.476;5.702;2022-11-20T07:24:16;24.23;;;14.77;;
42332;SDS011;27984;51.476;5.702;2022-11-20T07:26:42;24.13;;;15.38;;
42332;SDS011;27984;51.476;5.702;2022-11-20T07:29:10;24.10;;;15.63;;
42332;SDS011;27984;51.476;5.702;2022-11-20T07:31:36;30.42;;;16.25;;
42332;SDS011;27984;51.476;5.702;2022-11-20T07:34:01;24.13;;;15.25;;
42332;SDS011;27984;51.476;5.702;2022-11-20T07:36:27;23.75;;;15.05;;
42332;SDS011;27984;51.476;5.702;2022-11-20T07:38:53;25.90;;;15.95;;
42332;SDS011;27984;51.476;5.702;2022-11-20T07:41:19;23.15;;;15.13;;
42332;SDS011;27984;51.476;5.702;2022-11-20T07:43:44;26.33;;;15.43;;
42332;SDS011;27984;51.476;5.702;2022-11-20T07:46:10;25.50;;;16.08;;
42332;SDS011;27984;51.476;5.702;2022-11-20T07:48:36;25.27;;;15.13;;
42332;SDS011;27984;51.476;5.702;2022-11-20T07:51:01;25.83;;;15.02;;
42332;SDS011;27984;51.476;5.702;2022-11-20T07:53:27;25.25;;;15.25;;
42332;SDS011;27984;51.476;5.702;2022-11-20T07:55:52;23.63;;;15.75;;
42332;SDS011;27984;51.476;5.702;2022-11-20T07:58:18;25.88;;;15.25;;
42332;SDS011;27984;51.476;5.702;2022-11-20T08:00:45;23.33;;;15.50;;
42332;SDS011;27984;51.476;5.702;2022-11-20T08:03:11;24.17;;;15.52;;
42332;SDS011;27984;51.476;5.702;2022-11-20T08:05:36;25.33;;;15.23;;
42332;SDS011;27984;51.476;5.702;2022-11-20T08:08:02;23.88;;;15.38;;
42332;SDS011;27984;51.476;5.702;2022-11-20T08:10:28;25.77;;;15.93;;
42332;SDS011;27984;51.476;5.702;2022-11-20T08:12:54;22.25;;;15.40;;
42332;SDS011;27984;51.476;5.702;2022-11-20T08:15:38;25.48;;;15.15;;
42332;SDS011;27984;51.476;5.702;2022-11-20T08:18:05;23.70;;;15.48;;
42332;SDS011;27984;51.476;5.702;2022-11-20T08:20:33;24.80;;;15.68;;
42332;SDS011;27984;51.476;5.702;2022-11-20T08:23:00;26.15;;;15.75;;
42332;SDS011;27984;51.476;5.702;2022-11-20T08:25:28;24.40;;;15.65;;
42332;SDS011;27984;51.476;5.702;2022-11-20T08:27:56;25.00;;;16.60;;
42332;SDS011;27984;51.476;5.702;2022-11-20T08:30:29;22.63;;;14.93;;
42332;SDS011;27984;51.476;5.702;2022-11-20T08:33:00;25.42;;;15.57;;
42332;SDS011;27984;51.476;5.702;2022-11-20T08:35:27;27.88;;;15.35;;
42332;SDS011;27984;51.476;5.702;2022-11-20T08:37:53;22.40;;;14.40;;
42332;SDS011;27984;51.476;5.702;2022-11-20T08:40:18;22.67;;;15.25;;
42332;SDS011;27984;51.476;5.702;2022-11-20T08:42:47;25.15;;;15.70;;
42332;SDS011;27984;51.476;5.702;2022-11-20T08:45:14;22.67;;;14.80;;
42332;SDS011;27984;51.476;5.702;2022-11-20T08:47:40;26.02;;;15.18;;
42332;SDS011;27984;51.476;5.702;2022-11-20T08:50:07;23.27;;;15.35;;
42332;SDS011;27984;51.476;5.702;2022-11-20T08:52:33;23.23;;;14.93;;
42332;SDS011;27984;51.476;5.702;2022-11-20T08:54:59;23.52;;;15.35;;
42332;SDS011;27984;51.476;5.702;2022-11-20T08:57:24;25.95;;;16.50;;
42332;SDS011;27984;51.476;5.702;2022-11-20T08:59:51;25.95;;;18.02;;
42332;SDS011;27984;51.476;5.702;2022-11-20T09:02:16;27.95;;;16.95;;
42332;SDS011;27984;51.476;5.702;2022-11-20T09:04:42;30.98;;;19.08;;
42332;SDS011;27984;51.476;5.702;2022-11-20T09:07:07;33.15;;;20.60;;
42332;SDS011;27984;51.476;5.702;2022-11-20T09:09:33;31.10;;;20.13;;
42332;SDS011;27984;51.476;5.702;2022-11-20T09:11:59;32.20;;;19.85;;
42332;SDS011;27984;51.476;5.702;2022-11-20T09:14:26;34.38;;;20.25;;
42332;SDS011;27984;51.476;5.702;2022-11-20T09:16:54;32.97;;;20.55;;
42332;SDS011;27984;51.476;5.702;2022-11-20T09:19:21;37.80;;;21.55;;
42332;SDS011;27984;51.476;5.702;2022-11-20T09:21:46;34.80;;;21.27;;
42332;SDS011;27984;51.476;5.702;2022-11-20T09:24:12;32.78;;;21.23;;
42332;SDS011;27984;51.476;5.702;2022-11-20T09:26:37;39.15;;;21.90;;
42332;SDS011;27984;51.476;5.702;2022-11-20T09:29:03;42.00;;;24.13;;
42332;SDS011;27984;51.476;5.702;2022-11-20T09:31:29;37.72;;;23.00;;
42332;SDS011;27984;51.476;5.702;2022-11-20T09:33:54;41.10;;;24.08;;
42332;SDS011;27984;51.476;5.702;2022-11-20T09:36:20;38.53;;;23.67;;
42332;SDS011;27984;51.476;5.702;2022-11-20T09:38:46;42.22;;;24.30;;
42332;SDS011;27984;51.476;5.702;2022-11-20T09:44:40;42.65;;;24.65;;
42332;SDS011;27984;51.476;5.702;2022-11-20T09:46:53;39.30;;;23.58;;
42332;SDS011;27984;51.476;5.702;2022-11-20T09:52:01;40.05;;;20.98;;
42332;SDS011;27984;51.476;5.702;2022-11-20T09:54:43;37.42;;;21.95;;
42332;SDS011;27984;51.476;5.702;2022-11-20T09:57:10;41.40;;;22.83;;
42332;SDS011;27984;51.476;5.702;2022-11-20T09:59:42;41.35;;;21.52;;
42332;SDS011;27984;51.476;5.702;2022-11-20T10:04:51;43.65;;;22.63;;
42332;SDS011;27984;51.476;5.702;2022-11-20T10:07:32;50.33;;;22.20;;
42332;SDS011;27984;51.476;5.702;2022-11-20T10:10:13;44.42;;;22.70;;
42332;SDS011;27984;51.476;5.702;2022-11-20T10:13:21;46.58;;;22.60;;
42332;SDS011;27984;51.476;5.702;2022-11-20T10:16:08;49.60;;;23.60;;
42332;SDS011;27984;51.476;5.702;2022-11-20T10:21:38;47.38;;;23.85;;
42332;SDS011;27984;51.476;5.702;2022-11-20T10:30:11;54.45;;;24.88;;
42332;SDS011;27984;51.476;5.702;2022-11-20T10:32:43;49.50;;;23.88;;
42332;SDS011;27984;51.476;5.702;2022-11-20T10:37:57;48.50;;;24.38;;
42332;SDS011;27984;51.476;5.702;2022-11-20T10:40:27;45.55;;;23.02;;
42332;SDS011;27984;51.476;5.702;2022-11-20T10:43:02;46.97;;;23.95;;
42332;SDS011;27984;51.476;5.702;2022-11-20T10:50:38;52.00;;;26.15;;
42332;SDS011;27984;51.476;5.702;2022-11-20T10:53:16;51.08;;;25.63;;
42332;SDS011;27984;51.476;5.702;2022-11-20T10:55:58;51.55;;;26.42;;
42332;SDS011;27984;51.476;5.702;2022-11-20T10:58:36;52.38;;;26.45;;
42332;SDS011;27984;51.476;5.702;2022-11-20T11:01:23;53.65;;;26.25;;
42332;SDS011;27984;51.476;5.702;2022-11-20T11:03:51;58.75;;;25.55;;
42332;SDS011;27984;51.476;5.702;2022-11-20T11:06:37;55.83;;;26.23;;
42332;SDS011;27984;51.476;5.702;2022-11-20T11:09:11;53.25;;;25.80;;
42332;SDS011;27984;51.476;5.702;2022-11-20T11:11:44;58.50;;;26.60;;
42332;SDS011;27984;51.476;5.702;2022-11-20T11:14:11;51.15;;;25.17;;
42332;SDS011;27984;51.476;5.702;2022-11-20T11:16:51;54.85;;;26.33;;
42332;SDS011;27984;51.476;5.702;2022-11-20T11:19:19;59.15;;;25.25;;
42332;SDS011;27984;51.476;5.702;2022-11-20T11:21:49;59.95;;;25.52;;
42332;SDS011;27984;51.476;5.702;2022-11-20T11:27:01;57.25;;;26.20;;
42332;SDS011;27984;51.476;5.702;2022-11-20T11:29:31;54.58;;;26.05;;
42332;SDS011;27984;51.476;5.702;2022-11-20T11:32:04;55.13;;;25.58;;
42332;SDS011;27984;51.476;5.702;2022-11-20T11:34:36;51.53;;;25.02;;
42332;SDS011;27984;51.476;5.702;2022-11-20T11:37:02;57.13;;;25.67;;
42332;SDS011;27984;51.476;5.702;2022-11-20T11:39:30;52.88;;;25.48;;
42332;SDS011;27984;51.476;5.702;2022-11-20T11:41:58;59.78;;;25.80;;
42332;SDS011;27984;51.476;5.702;2022-11-20T11:44:30;54.20;;;25.50;;
42332;SDS011;27984;51.476;5.702;2022-11-20T11:47:21;54.90;;;26.13;;
42332;SDS011;27984;51.476;5.702;2022-11-20T11:49:48;52.08;;;25.70;;
42332;SDS011;27984;51.476;5.702;2022-11-20T11:52:17;53.90;;;27.42;;
42332;SDS011;27984;51.476;5.702;2022-11-20T11:54:55;57.38;;;27.55;;
42332;SDS011;27984;51.476;5.702;2022-11-20T12:00:09;54.17;;;27.50;;
42332;SDS011;27984;51.476;5.702;2022-11-20T12:07:58;52.33;;;25.98;;
42332;SDS011;27984;51.476;5.702;2022-11-20T12:15:58;54.00;;;26.85;;
42332;SDS011;27984;51.476;5.702;2022-11-20T12:18:26;55.47;;;27.70;;
42332;SDS011;27984;51.476;5.702;2022-11-20T12:23:44;54.90;;;28.08;;
42332;SDS011;27984;51.476;5.702;2022-11-20T12:34:44;53.17;;;26.23;;
42332;SDS011;27984;51.476;5.702;2022-11-20T12:37:30;52.55;;;26.42;;
42332;SDS011;27984;51.476;5.702;2022-11-20T12:43:19;61.15;;;29.50;;
42332;SDS011;27984;51.476;5.702;2022-11-20T12:46:12;60.92;;;27.35;;
42332;SDS011;27984;51.476;5.702;2022-11-20T12:49:03;55.08;;;27.70;;
42332;SDS011;27984;51.476;5.702;2022-11-20T13:07:57;51.47;;;26.83;;
42332;SDS011;27984;51.476;5.702;2022-11-20T13:10:46;53.63;;;27.10;;
42332;SDS011;27984;51.476;5.702;2022-11-20T13:13:19;54.30;;;26.95;;
42332;SDS011;27984;51.476;5.702;2022-11-20T13:16:00;55.95;;;27.60;;
42332;SDS011;27984;51.476;5.702;2022-11-20T13:18:34;48.65;;;26.30;;
42332;SDS011;27984;51.476;5.702;2022-11-20T13:21:20;60.70;;;28.20;;
42332;SDS011;27984;51.476;5.702;2022-11-20T13:23:47;52.75;;;25.95;;
42332;SDS011;27984;51.476;5.702;2022-11-20T13:26:15;56.38;;;27.35;;
42332;SDS011;27984;51.476;5.702;2022-11-20T13:28:46;53.60;;;26.83;;
42332;SDS011;27984;51.476;5.702;2022-11-20T13:31:29;55.00;;;27.38;;
42332;SDS011;27984;51.476;5.702;2022-11-20T13:33:57;58.83;;;28.38;;
42332;SDS011;27984;51.476;5.702;2022-11-20T13:36:26;57.28;;;27.95;;
42332;SDS011;27984;51.476;5.702;2022-11-20T13:38:54;65.40;;;28.27;;
42332;SDS011;27984;51.476;5.702;2022-11-20T13:41:28;60.72;;;29.38;;
42332;SDS011;27984;51.476;5.702;2022-11-20T13:47:03;54.33;;;27.08;;
42332;SDS011;27984;51.476;5.702;2022-11-20T13:49:33;55.33;;;27.67;;
42332;SDS011;27984;51.476;5.702;2022-11-20T14:02:39;57.65;;;27.52;;
42332;SDS011;27984;51.476;5.702;2022-11-20T14:05:11;57.78;;;29.27;;
42332;SDS011;27984;51.476;5.702;2022-11-20T14:07:50;56.28;;;28.50;;
42332;SDS011;27984;51.476;5.702;2022-11-20T14:12:45;64.90;;;29.55;;
42332;SDS011;27984;51.476;5.702;2022-11-20T14:15:28;57.85;;;30.30;;
42332;SDS011;27984;51.476;5.702;2022-11-20T14:17:55;56.63;;;27.92;;
42332;SDS011;27984;51.476;5.702;2022-11-20T14:20:23;58.75;;;27.67;;
42332;SDS011;27984;51.476;5.702;2022-11-20T14:22:52;55.38;;;26.98;;
42332;SDS011;27984;51.476;5.702;2022-11-20T14:25:22;53.88;;;27.67;;
42332;SDS011;27984;51.476;5.702;2022-11-20T14:30:26;52.08;;;26.25;;
42332;SDS011;27984;51.476;5.702;2022-11-20T14:32:55;55.78;;;26.27;;
42332;SDS011;27984;51.476;5.702;2022-11-20T14:35:29;58.80;;;26.88;;
42332;SDS011;27984;51.476;5.702;2022-11-20T14:37:56;60.33;;;29.98;;
42332;SDS011;27984;51.476;5.702;2022-11-20T14:40:33;52.45;;;27.50;;
42332;SDS011;27984;51.476;5.702;2022-11-20T14:43:00;59.80;;;27.77;;
42332;SDS011;27984;51.476;5.702;2022-11-20T14:45:27;53.78;;;27.52;;
42332;SDS011;27984;51.476;5.702;2022-11-20T14:47:56;55.25;;;26.92;;
42332;SDS011;27984;51.476;5.702;2022-11-20T14:50:24;58.67;;;27.70;;
42332;SDS011;27984;51.476;5.702;2022-11-20T14:52:57;58.13;;;26.95;;
42332;SDS011;27984;51.476;5.702;2022-11-20T14:55:25;63.88;;;29.08;;
42332;SDS011;27984;51.476;5.702;2022-11-20T14:57:55;59.95;;;28.67;;
42332;SDS011;27984;51.476;5.702;2022-11-20T15:00:23;69.00;;;29.05;;
42332;SDS011;27984;51.476;5.702;2022-11-20T15:02:51;63.83;;;30.08;;
42332;SDS011;27984;51.476;5.702;2022-11-20T15:05:18;70.03;;;30.00;;
42332;SDS011;27984;51.476;5.702;2022-11-20T15:08:19;77.15;;;29.58;;
42332;SDS011;27984;51.476;5.702;2022-11-20T15:10:43;70.07;;;29.25;;
42332;SDS011;27984;51.476;5.702;2022-11-20T15:13:12;69.47;;;29.63;;
42332;SDS011;27984;51.476;5.702;2022-11-20T15:15:48;72.88;;;31.00;;
42332;SDS011;27984;51.476;5.702;2022-11-20T15:18:17;73.97;;;31.55;;
42332;SDS011;27984;51.476;5.702;2022-11-20T15:20:47;68.72;;;28.50;;
42332;SDS011;27984;51.476;5.702;2022-11-20T15:23:14;72.20;;;30.77;;
42332;SDS011;27984;51.476;5.702;2022-11-20T15:25:43;69.90;;;29.48;;
42332;SDS011;27984;51.476;5.702;2022-11-20T15:28:20;77.57;;;30.67;;
42332;SDS011;27984;51.476;5.702;2022-11-20T15:30:48;76.20;;;31.73;;
42332;SDS011;27984;51.476;5.702;2022-11-20T15:33:17;69.85;;;29.90;;
42332;SDS011;27984;51.476;5.702;2022-11-20T15:35:46;73.95;;;30.77;;
42332;SDS011;27984;51.476;5.702;2022-11-20T15:38:11;78.18;;;31.55;;
42332;SDS011;27984;51.476;5.702;2022-11-20T15:40:39;79.85;;;31.35;;
42332;SDS011;27984;51.476;5.702;2022-11-20T15:43:07;79.47;;;33.13;;
42332;SDS011;27984;51.476;5.702;2022-11-20T15:48:07;82.00;;;31.88;;
42332;SDS011;27984;51.476;5.702;2022-11-20T15:50:39;75.20;;;30.35;;
42332;SDS011;27984;51.476;5.702;2022-11-20T15:53:29;72.18;;;29.25;;
42332;SDS011;27984;51.476;5.702;2022-11-20T15:55:54;79.80;;;31.67;;
42332;SDS011;27984;51.476;5.702;2022-11-20T15:58:22;75.80;;;30.55;;
42332;SDS011;27984;51.476;5.702;2022-11-20T16:00:51;77.10;;;31.17;;
42332;SDS011;27984;51.476;5.702;2022-11-20T16:03:17;74.47;;;30.50;;
42332;SDS011;27984;51.476;5.702;2022-11-20T16:05:44;72.55;;;29.27;;
42332;SDS011;27984;51.476;5.702;2022-11-20T16:08:10;69.70;;;28.55;;
42332;SDS011;27984;51.476;5.702;2022-11-20T16:10:36;75.13;;;29.73;;
42332;SDS011;27984;51.476;5.702;2022-11-20T16:13:05;70.95;;;29.73;;
42332;SDS011;27984;51.476;5.702;2022-11-20T16:15:59;80.13;;;30.10;;
42332;SDS011;27984;51.476;5.702;2022-11-20T16:18:30;70.88;;;29.23;;
42332;SDS011;27984;51.476;5.702;2022-11-20T16:20:58;68.93;;;28.15;;